Time;durP1;ratioP1;P1;durP2;ratioP2;P2;SDS_P1;SDS_P2;PMS_P1;PMS_P2;Temp;Humidity;BMP_temperature;BMP_pressure;BME280_temperature;BME280_humidity;BME280_pressure;Samples;Min_cycle;Max_cycle;Signal;HPM_P1;HPM_P2
2021/08/28 00:02:07;;;;;;;0.20;0.20;;;;;;;15.28;73.67;100167.97;4944584;28;20079;-77
2021/08/28 00:04:34;;;;;;;0.17;0.17;;;;;;;15.27;73.61;100166.28;4934029;29;20039;-79
2021/08/28 00:07:01;;;;;;;0.20;0.20;;;;;;;15.25;73.44;100168.31;4946516;28;20058;-76
2021/08/28 00:09:26;;;;;;;0.10;0.10;;;;;;;15.26;73.43;100172.75;4940108;28;20039;-77
2021/08/28 00:11:52;;;;;;;0.20;0.20;;;;;;;15.25;73.29;100162.84;4948259;28;20047;-78
2021/08/28 00:14:18;;;;;;;0.20;0.13;;;;;;;15.23;73.50;100168.47;4952348;28;20418;-76
2021/08/28 00:16:44;;;;;;;0.20;0.20;;;;;;;15.22;73.11;100163.22;4947644;28;20035;-78
2021/08/28 00:19:10;;;;;;;0.20;0.20;;;;;;;15.17;73.55;100158.25;4918417;29;20047;-76
2021/08/28 00:21:36;;;;;;;0.20;0.20;;;;;;;15.15;73.66;100157.59;4954697;28;20031;-78
2021/08/28 00:24:02;;;;;;;0.20;0.20;;;;;;;15.09;73.73;100153.66;4962154;28;20095;-76
2021/08/28 00:26:29;;;;;;;0.15;0.15;;;;;;;15.15;73.78;100169.31;4908608;29;20163;-76
2021/08/28 00:28:55;;;;;;;0.20;0.20;;;;;;;15.14;73.76;100170.34;4946524;29;20070;-79
2021/08/28 00:31:21;;;;;;;0.20;0.20;;;;;;;15.16;73.49;100183.78;4943342;29;20435;-76
2021/08/28 00:33:47;;;;;;;0.20;0.20;;;;;;;15.13;73.29;100168.63;4915725;29;20058;-79
2021/08/28 00:36:13;;;;;;;0.20;0.20;;;;;;;15.11;73.23;100167.97;4927507;29;20043;-78
2021/08/28 00:38:38;;;;;;;0.10;0.10;;;;;;;15.14;73.32;100175.81;4920426;28;20103;-75
2021/08/28 00:41:05;;;;;;;0.20;0.20;;;;;;;15.11;73.59;100181.59;4926464;28;20698;-77
2021/08/28 00:43:31;;;;;;;0.20;0.20;;;;;;;15.13;73.03;100182.25;4939765;28;20065;-77
2021/08/28 00:45:58;;;;;;;0.20;0.20;;;;;;;15.11;72.91;100184.31;4953827;28;20051;-77
2021/08/28 00:48:27;;;;;;;0.10;0.10;;;;;;;15.08;73.14;100173.75;4959294;28;20138;-79
2021/08/28 00:50:53;;;;;;;0.10;0.10;;;;;;;15.07;72.85;100182.09;4929098;28;20044;-76
2021/08/28 00:53:19;;;;;;;0.10;0.10;;;;;;;15.07;72.78;100188.38;4929545;28;20134;-80
2021/08/28 00:55:47;;;;;;;0.20;0.20;;;;;;;15.05;72.97;100190.41;4935023;28;20039;-78
2021/08/28 00:58:13;;;;;;;0.10;0.10;;;;;;;15.02;72.82;100190.75;4961371;28;20082;-79
2021/08/28 01:00:48;;;;;;;0.20;0.20;;;;;;;15.01;72.86;100193.66;4937897;28;20144;-80
2021/08/28 01:03:20;;;;;;;0.10;0.10;;;;;;;15.00;72.86;100189.22;4921538;28;20040;-78
2021/08/28 01:05:54;;;;;;;0.10;0.10;;;;;;;14.96;73.28;100185.97;4947069;28;20560;-79
2021/08/28 01:08:29;;;;;;;0.10;0.10;;;;;;;14.99;73.12;100190.22;4944938;28;20076;-78
2021/08/28 01:11:38;;;;;;;0.20;0.20;;;;;;;14.94;73.02;100182.56;4918122;29;20075;-77
2021/08/28 01:14:08;;;;;;;0.20;0.20;;;;;;;14.91;73.18;100182.88;4934704;28;20326;-78
2021/08/28 01:16:43;;;;;;;0.20;0.20;;;;;;;14.90;73.41;100181.19;4928704;28;20047;-78
2021/08/28 01:19:15;;;;;;;0.10;0.10;;;;;;;14.85;73.37;100194.47;4932986;28;20453;-78
2021/08/28 01:21:41;;;;;;;0.20;0.20;;;;;;;14.82;73.65;100186.63;4923172;28;20039;-76
2021/08/28 01:24:26;;;;;;;0.10;0.10;;;;;;;14.74;74.12;100184.72;4936616;28;20042;-78
2021/08/28 01:27:11;;;;;;;0.20;0.20;;;;;;;14.74;73.70;100186.59;4936949;28;20142;-79
2021/08/28 01:29:38;;;;;;;0.20;0.20;;;;;;;14.72;73.72;100194.91;4939430;28;20536;-76
2021/08/28 01:32:04;;;;;;;0.20;0.20;;;;;;;14.68;73.77;100188.94;4951233;28;20046;-78
2021/08/28 01:34:31;;;;;;;0.10;0.10;;;;;;;14.68;73.76;100183.50;4939765;28;20030;-77
2021/08/28 01:36:58;;;;;;;0.20;0.20;;;;;;;14.64;73.82;100182.13;4951642;28;20052;-78
2021/08/28 01:39:56;;;;;;;0.20;0.20;;;;;;;14.64;74.25;100189.44;4887408;28;20048;-76
2021/08/28 01:42:32;;;;;;;0.20;0.20;;;;;;;14.60;73.87;100186.19;4897894;28;20520;-77
2021/08/28 01:44:58;;;;;;;0.10;0.10;;;;;;;14.59;74.08;100189.06;4941070;28;20210;-76
2021/08/28 01:47:28;;;;;;;0.20;0.20;;;;;;;14.53;74.00;100187.88;4916713;29;20113;-77
2021/08/28 01:49:55;;;;;;;0.20;0.20;;;;;;;14.54;74.13;100186.84;4922627;28;20047;-77
2021/08/28 01:52:21;;;;;;;0.20;0.20;;;;;;;14.49;74.00;100189.19;4926737;29;20522;-76
2021/08/28 01:54:52;;;;;;;0.20;0.20;;;;;;;14.48;74.15;100185.63;4917397;29;20032;-76
2021/08/28 01:57:20;;;;;;;0.20;0.20;;;;;;;14.49;74.10;100194.63;4898993;29;20048;-76
2021/08/28 02:00:06;;;;;;;0.20;0.20;;;;;;;14.45;74.09;100187.81;4934389;29;20050;-77
2021/08/28 02:02:51;;;;;;;0.20;0.20;;;;;;;14.41;74.05;100186.44;4931158;28;20059;-77
2021/08/28 02:05:17;;;;;;;0.20;0.20;;;;;;;14.36;74.15;100177.88;4920226;28;20117;-80
2021/08/28 02:08:04;;;;;;;0.20;0.20;;;;;;;14.36;74.29;100183.34;4936128;28;20051;-77
2021/08/28 02:10:40;;;;;;;0.10;0.10;;;;;;;14.31;74.48;100188.41;4946733;28;20062;-76
2021/08/28 02:13:14;;;;;;;0.20;0.20;;;;;;;14.27;74.45;100178.88;4957705;28;20095;-77
2021/08/28 02:15:50;;;;;;;0.20;0.20;;;;;;;14.26;75.04;100190.75;4924212;28;20043;-77
2021/08/28 02:18:34;;;;;;;0.20;0.20;;;;;;;14.18;74.64;100181.53;4949170;28;20047;-75
2021/08/28 02:21:09;;;;;;;0.20;0.20;;;;;;;14.17;74.87;100196.16;4921977;28;20142;-78
2021/08/28 02:23:45;;;;;;;0.20;0.20;;;;;;;14.14;74.81;100196.47;4934246;28;20035;-76
2021/08/28 02:26:40;;;;;;;0.20;0.20;;;;;;;14.05;75.32;100192.00;4909497;29;20567;-77
2021/08/28 02:29:17;;;;;;;0.20;0.20;;;;;;;14.07;75.22;100198.13;4948926;28;20065;-77
2021/08/28 02:31:46;;;;;;;0.20;0.20;;;;;;;14.04;75.22;100198.47;4934312;29;20198;-76
2021/08/28 02:34:16;;;;;;;0.20;0.20;;;;;;;14.03;75.21;100198.59;4934316;29;20087;-76
2021/08/28 02:36:45;;;;;;;0.20;0.20;;;;;;;13.99;75.54;100198.06;4921320;28;20047;-77
2021/08/28 02:39:13;;;;;;;0.20;0.20;;;;;;;13.99;75.65;100198.06;4924695;28;20430;-76
2021/08/28 02:41:42;;;;;;;0.20;0.20;;;;;;;13.92;75.83;100199.72;4921786;28;20186;-77
2021/08/28 02:44:09;;;;;;;0.10;0.10;;;;;;;13.87;75.67;100211.09;4937413;28;20039;-76
2021/08/28 02:46:35;;;;;;;0.20;0.20;;;;;;;13.80;76.14;100209.16;4943053;28;20461;-78
2021/08/28 02:49:09;;;;;;;0.10;0.10;;;;;;;13.79;76.34;100212.91;4933278;28;20048;-76
2021/08/28 02:51:39;;;;;;;0.20;0.20;;;;;;;13.77;76.34;100209.47;4922079;28;20141;-77
2021/08/28 02:54:05;;;;;;;0.20;0.20;;;;;;;13.82;76.13;100215.28;4912334;28;20054;-79
2021/08/28 02:56:32;;;;;;;0.20;0.20;;;;;;;13.81;76.14;100216.28;4918509;28;20082;-76
2021/08/28 02:58:59;;;;;;;0.20;0.20;;;;;;;13.78;76.22;100225.59;4896731;28;20050;-78
2021/08/28 03:01:28;;;;;;;0.20;0.20;;;;;;;13.75;76.03;100223.22;4920049;28;20050;-79
2021/08/28 03:03:56;;;;;;;0.20;0.20;;;;;;;13.70;76.15;100212.81;4932818;28;20147;-76
2021/08/28 03:06:25;;;;;;;0.20;0.20;;;;;;;13.68;76.46;100206.69;4911974;28;20128;-77
2021/08/28 03:08:51;;;;;;;0.20;0.20;;;;;;;13.72;76.04;100224.38;4937645;28;20150;-77
2021/08/28 03:11:17;;;;;;;0.20;0.20;;;;;;;13.68;76.33;100233.03;4917750;28;20056;-77
2021/08/28 03:13:46;;;;;;;0.20;0.20;;;;;;;13.71;76.15;100217.25;4915588;28;20619;-76
2021/08/28 03:16:13;;;;;;;0.20;0.20;;;;;;;13.75;76.02;100210.50;4943453;28;20059;-78
2021/08/28 03:18:42;;;;;;;0.20;0.20;;;;;;;13.86;75.49;100209.38;4903568;28;20542;-76
2021/08/28 03:21:11;;;;;;;0.20;0.20;;;;;;;13.85;75.88;100220.41;4918406;28;20050;-77
2021/08/28 03:23:39;;;;;;;0.20;0.20;;;;;;;13.90;75.48;100226.22;4952850;28;20074;-76
2021/08/28 03:26:05;;;;;;;0.20;0.20;;;;;;;13.99;74.77;100230.69;4905509;28;20048;-77
2021/08/28 03:28:32;;;;;;;0.20;0.20;;;;;;;14.06;74.78;100222.75;4950779;28;20043;-77
2021/08/28 03:31:00;;;;;;;0.20;0.20;;;;;;;14.11;74.29;100215.81;4934666;29;20123;-79
2021/08/28 03:33:26;;;;;;;0.30;0.30;;;;;;;14.17;73.77;100217.91;4922682;28;20042;-78
2021/08/28 03:35:56;;;;;;;0.20;0.20;;;;;;;14.21;73.32;100222.00;4953081;28;20084;-78
2021/08/28 03:38:21;;;;;;;0.20;0.20;;;;;;;14.28;73.34;100229.53;4931337;28;20509;-76
2021/08/28 03:40:48;;;;;;;0.20;0.20;;;;;;;14.27;73.05;100227.84;4938246;28;20039;-78
2021/08/28 03:43:14;;;;;;;0.20;0.20;;;;;;;14.35;72.75;100217.84;4953425;28;20035;-78
2021/08/28 03:45:40;;;;;;;0.20;0.20;;;;;;;14.23;72.69;100230.88;4925392;29;20417;-78
2021/08/28 03:48:08;;;;;;;0.30;0.30;;;;;;;14.39;72.43;100235.53;4906612;28;20426;-78
2021/08/28 03:50:35;;;;;;;0.30;0.30;;;;;;;14.66;71.57;100231.81;4918608;28;20046;-76
2021/08/28 03:53:02;;;;;;;0.30;0.30;;;;;;;14.87;70.06;100235.97;4922754;29;20064;-78
2021/08/28 03:55:28;;;;;;;0.30;0.30;;;;;;;15.02;69.70;100234.31;4920921;28;20074;-77
2021/08/28 03:57:55;;;;;;;0.30;0.30;;;;;;;15.16;68.90;100232.81;4950229;28;20552;-76
2021/08/28 04:00:21;;;;;;;0.30;0.30;;;;;;;15.30;68.07;100225.88;4955043;28;20043;-77
2021/08/28 04:03:02;;;;;;;0.30;0.30;;;;;;;15.33;67.70;100231.00;4943289;28;20049;-78
2021/08/28 04:05:29;;;;;;;0.20;0.20;;;;;;;15.20;67.68;100237.75;4931403;28;20066;-76
2021/08/28 04:08:10;;;;;;;0.20;0.20;;;;;;;15.05;68.48;100228.53;4953111;28;20072;-77
2021/08/28 04:10:43;;;;;;;0.20;0.20;;;;;;;14.84;68.89;100241.72;4932002;28;20485;-78
2021/08/28 04:13:10;;;;;;;0.20;0.20;;;;;;;14.71;69.40;100240.34;4946042;28;20043;-79
2021/08/28 04:15:36;;;;;;;0.20;0.20;;;;;;;14.56;69.87;100235.69;4936102;28;20087;-78
2021/08/28 04:18:34;;;;;;;0.20;0.20;;;;;;;14.47;69.86;100234.72;4912033;28;20074;-77
2021/08/28 04:21:15;;;;;;;0.20;0.20;;;;;;;14.41;70.21;100251.72;4950614;28;20426;-80
2021/08/28 04:23:44;;;;;;;0.20;0.20;;;;;;;14.35;70.19;100246.91;4934797;29;20126;-77
2021/08/28 04:26:29;;;;;;;0.20;0.20;;;;;;;14.33;70.36;100247.06;4954321;28;20176;-79
2021/08/28 04:28:55;;;;;;;0.20;0.20;;;;;;;14.31;70.30;100245.53;4931622;28;20074;-77
2021/08/28 04:31:23;;;;;;;0.20;0.20;;;;;;;14.33;70.62;100240.78;4924479;28;20051;-79
2021/08/28 04:33:50;;;;;;;0.20;0.20;;;;;;;14.39;70.21;100238.25;4939752;28;20051;-77
2021/08/28 04:36:16;;;;;;;0.20;0.20;;;;;;;14.37;70.20;100239.44;4930095;28;20043;-79
2021/08/28 04:38:44;;;;;;;0.20;0.20;;;;;;;14.41;70.21;100236.25;4937650;28;20050;-78
2021/08/28 04:41:09;;;;;;;0.20;0.20;;;;;;;14.44;69.56;100235.03;4938314;28;20047;-78
2021/08/28 04:43:36;;;;;;;0.30;0.30;;;;;;;14.53;69.75;100236.84;4934402;28;20525;-78
2021/08/28 04:46:33;;;;;;;0.20;0.20;;;;;;;14.62;69.56;100227.69;4939280;28;20087;-80
2021/08/28 04:49:02;;;;;;;0.20;0.20;;;;;;;14.66;69.13;100234.53;4958415;28;20047;-77
2021/08/28 04:51:46;;;;;;;0.20;0.20;;;;;;;14.76;69.60;100233.53;4927631;29;20146;-80
2021/08/28 04:54:14;;;;;;;0.20;0.20;;;;;;;14.83;69.00;100240.03;4901111;28;20069;-80
2021/08/28 04:56:40;;;;;;;0.20;0.20;;;;;;;14.89;68.56;100239.38;4945078;29;20047;-79
2021/08/28 04:59:08;;;;;;;0.20;0.20;;;;;;;14.90;68.88;100232.91;4942565;29;20046;-78
2021/08/28 05:01:43;;;;;;;0.20;0.20;;;;;;;15.00;68.70;100238.22;4929227;29;20062;-77
2021/08/28 05:04:11;;;;;;;0.30;0.30;;;;;;;15.03;67.64;100230.59;4958459;28;20123;-78
2021/08/28 05:06:37;;;;;;;0.20;0.20;;;;;;;14.99;66.89;100248.28;4939969;29;20074;-79
2021/08/28 05:09:06;;;;;;;0.20;0.20;;;;;;;14.97;67.52;100242.13;4928035;28;20429;-79
2021/08/28 05:11:32;;;;;;;0.30;0.30;;;;;;;15.12;67.50;100237.75;4955868;28;20043;-80
2021/08/28 05:13:58;;;;;;;0.30;0.30;;;;;;;15.20;67.04;100242.34;4942801;29;20043;-77
2021/08/28 05:16:24;;;;;;;0.30;0.30;;;;;;;15.31;66.61;100238.47;4945618;29;20047;-78
2021/08/28 05:18:49;;;;;;;0.30;0.25;;;;;;;15.32;66.30;100234.72;4938777;29;20043;-80
2021/08/28 05:21:20;;;;;;;0.30;0.30;;;;;;;15.25;66.21;100223.66;4935106;28;20051;-83
2021/08/28 05:24:17;;;;;;;0.20;0.20;;;;;;;15.40;66.00;100226.56;4921616;28;20035;-81
2021/08/28 05:26:46;;;;;;;0.30;0.30;;;;;;;15.46;65.56;100231.31;4929172;28;20139;-77
2021/08/28 05:29:12;;;;;;;0.40;0.40;;;;;;;15.70;64.80;100235.16;4955853;28;20134;-80
2021/08/28 05:31:38;;;;;;;0.70;0.70;;;;;;;16.53;62.04;100232.97;4951463;28;20596;-80
2021/08/28 05:34:07;;;;;;;0.60;0.60;;;;;;;17.16;59.93;100235.81;4945001;28;20046;-80
2021/08/28 05:36:53;;;;;;;0.60;0.60;;;;;;;17.53;58.91;100244.09;4954963;28;20138;-80
2021/08/28 05:39:57;;;;;;;0.60;0.60;;;;;;;18.39;56.05;100239.28;4945264;28;20138;-79
2021/08/28 05:42:26;;;;;;;0.70;0.70;;;;;;;18.76;54.83;100240.25;4936188;28;20520;-81
2021/08/28 05:44:52;;;;;;;0.70;0.70;;;;;;;19.21;53.65;100243.75;4938088;28;20039;-81
2021/08/28 05:47:19;;;;;;;0.60;0.60;;;;;;;19.49;52.47;100239.22;4956793;28;20924;-81
2021/08/28 05:49:46;;;;;;;0.70;0.70;;;;;;;19.75;51.90;100244.16;4931640;28;20039;-79
2021/08/28 05:52:17;;;;;;;0.60;0.60;;;;;;;20.39;50.13;100242.34;4947212;29;20054;-79
2021/08/28 05:54:44;;;;;;;0.20;0.20;;;;;;;19.70;51.58;100243.03;4944460;28;20050;-81
2021/08/28 05:57:10;;;;;;;0.20;0.20;;;;;;;18.83;54.17;100238.44;4936565;29;20048;-79
2021/08/28 05:59:36;;;;;;;0.30;0.30;;;;;;;18.30;55.49;100232.16;4933368;28;20038;-80
2021/08/28 06:02:05;;;;;;;0.30;0.30;;;;;;;17.96;56.27;100219.84;4951724;28;20432;-78
2021/08/28 06:04:34;;;;;;;0.40;0.40;;;;;;;18.19;56.14;100221.69;4918268;29;20039;-81
2021/08/28 06:07:09;;;;;;;0.50;0.50;;;;;;;18.89;53.61;100223.13;4952102;28;20051;-81
2021/08/28 06:09:50;;;;;;;0.50;0.50;;;;;;;19.12;53.40;100226.56;4946958;28;20531;-78
2021/08/28 06:12:55;;;;;;;0.90;0.90;;;;;;;19.91;52.06;100218.34;4855408;29;20057;-79
2021/08/28 06:15:35;;;;;;;0.90;0.90;;;;;;;20.81;49.23;100213.91;4839831;29;20134;-80
2021/08/28 06:18:08;;;;;;;0.90;0.90;;;;;;;21.42;47.44;100226.81;4901949;29;20055;-80
2021/08/28 06:20:34;;;;;;;1.20;0.80;;;;;;;21.40;47.14;100218.78;4946833;28;20513;-79
2021/08/28 06:23:04;;;;;;;0.80;0.80;;;;;;;21.79;46.50;100217.19;4958666;28;20085;-81
2021/08/28 06:25:50;;;;;;;0.90;0.90;;;;;;;22.34;45.10;100215.06;4955487;28;20665;-82
2021/08/28 06:28:16;;;;;;;0.88;0.88;;;;;;;22.75;43.83;100216.66;4966576;28;20130;-81
2021/08/28 06:30:43;;;;;;;0.80;0.80;;;;;;;22.94;44.07;100211.31;4955824;28;20076;-77
2021/08/28 06:33:10;;;;;;;0.80;0.80;;;;;;;23.32;42.72;100206.66;4942041;28;20065;-80
2021/08/28 06:35:36;;;;;;;0.80;0.80;;;;;;;23.98;41.26;100216.41;4925391;28;20513;-81
2021/08/28 06:38:14;;;;;;;0.88;0.88;;;;;;;24.69;39.89;100212.38;4924196;28;20135;-82
2021/08/28 06:41:01;;;;;;;0.80;0.80;;;;;;;24.96;38.98;100209.28;4959398;28;20043;-81
2021/08/28 06:43:46;;;;;;;0.80;0.80;;;;;;;25.40;38.08;100215.53;4937690;28;20043;-79
2021/08/28 06:46:30;;;;;;;0.90;0.90;;;;;;;25.52;38.00;100204.50;4952315;28;20059;-79
2021/08/28 06:49:17;;;;;;;0.90;0.90;;;;;;;26.04;37.21;100207.56;4957376;28;20141;-80
2021/08/28 06:52:02;;;;;;;0.90;0.90;;;;;;;26.56;36.55;100205.78;4937320;28;20137;-83
2021/08/28 06:54:46;;;;;;;0.90;0.90;;;;;;;26.60;35.63;100195.03;4940060;28;20472;-83
2021/08/28 06:57:32;;;;;;;0.80;0.80;;;;;;;26.92;35.61;100184.34;4941009;28;20047;-80
2021/08/28 07:00:13;;;;;;;0.90;0.90;;;;;;;26.89;34.98;100204.25;4919845;28;20043;-79
2021/08/28 07:02:57;;;;;;;0.90;0.90;;;;;;;26.68;35.42;100187.16;4937190;28;20050;-80
2021/08/28 07:05:23;;;;;;;0.90;0.90;;;;;;;26.63;35.36;100195.38;4947995;28;20620;-82
2021/08/28 07:07:52;;;;;;;0.90;0.90;;;;;;;26.68;35.50;100191.88;4930307;29;20415;-83
2021/08/28 07:10:19;;;;;;;0.90;0.90;;;;;;;26.53;35.60;100197.94;4944428;28;20039;-82
2021/08/28 07:12:45;;;;;;;0.90;0.90;;;;;;;27.12;34.53;100193.13;4934733;29;20065;-81
2021/08/28 07:15:12;;;;;;;1.00;1.00;;;;;;;26.94;34.68;100196.03;4938621;28;20047;-83
2021/08/28 07:17:47;;;;;;;0.90;0.90;;;;;;;26.94;34.60;100184.94;4909553;29;20093;-80
2021/08/28 07:20:14;;;;;;;0.93;0.90;;;;;;;26.76;34.62;100190.66;4924356;28;20467;-83
2021/08/28 07:22:41;;;;;;;1.00;1.00;;;;;;;27.06;34.68;100193.22;4918657;29;20133;-81
2021/08/28 07:25:18;;;;;;;0.95;0.95;;;;;;;27.28;33.45;100194.28;4931044;28;20047;-81
2021/08/28 07:27:44;;;;;;;1.00;1.00;;;;;;;27.33;33.44;100197.13;4926783;29;20114;-80
2021/08/28 07:30:39;;;;;;;1.00;1.00;;;;;;;27.43;32.96;100190.94;4934369;28;20043;-81
2021/08/28 07:33:06;;;;;;;1.00;1.00;;;;;;;27.17;33.67;100201.56;4920218;28;20047;-82
2021/08/28 07:35:32;;;;;;;1.00;1.00;;;;;;;27.32;33.48;100202.97;4928600;28;20051;-82
2021/08/28 07:37:59;;;;;;;1.20;1.20;;;;;;;27.93;32.26;100187.41;4925946;28;20055;-81
2021/08/28 07:40:25;;;;;;;1.00;1.00;;;;;;;28.19;32.04;100190.59;4928396;28;20107;-83
2021/08/28 07:42:56;;;;;;;1.00;1.00;;;;;;;28.31;31.41;100194.97;4914531;28;20044;-81
2021/08/28 07:45:22;;;;;;;1.00;1.00;;;;;;;27.93;32.21;100192.97;4926905;28;20039;-80
2021/08/28 07:48:09;;;;;;;1.00;1.00;;;;;;;27.76;32.52;100187.41;4942985;28;20044;-80
2021/08/28 07:50:36;;;;;;;1.10;1.10;;;;;;;27.91;32.61;100189.59;4916604;29;20038;-82
2021/08/28 07:53:02;;;;;;;1.10;1.10;;;;;;;27.78;32.45;100187.16;4913579;29;20059;-82
2021/08/28 07:55:30;;;;;;;1.10;1.10;;;;;;;27.79;32.27;100188.81;4931212;29;20047;-83
2021/08/28 07:57:56;;;;;;;1.10;1.10;;;;;;;27.74;32.46;100188.72;4931890;29;20102;-81
2021/08/28 08:00:23;;;;;;;1.10;1.10;;;;;;;28.42;31.70;100184.03;4932371;29;20095;-82
2021/08/28 08:02:51;;;;;;;1.08;1.08;;;;;;;28.72;30.98;100189.19;4934794;29;20044;-81
2021/08/28 08:05:40;;;;;;;1.10;1.10;;;;;;;27.88;31.68;100190.09;4921720;29;20212;-80
2021/08/28 08:08:34;;;;;;;1.10;1.10;;;;;;;27.62;32.47;100186.84;4884204;29;20053;-83
2021/08/28 08:11:19;;;;;;;1.10;1.10;;;;;;;27.99;32.30;100177.22;4933397;28;20046;-83
2021/08/28 08:14:04;;;;;;;1.10;1.10;;;;;;;29.24;30.35;100185.94;4919087;28;20047;-83
2021/08/28 08:16:50;;;;;;;1.27;1.27;;;;;;;30.01;29.55;100179.19;4943312;28;20055;-80
2021/08/28 08:19:32;;;;;;;1.10;1.10;;;;;;;30.61;28.16;100191.91;4929289;28;20362;-83
2021/08/28 08:22:17;;;;;;;1.00;1.00;;;;;;;29.89;29.27;100187.75;4931646;28;20406;-82
2021/08/28 08:24:51;;;;;;;1.10;1.10;;;;;;;29.67;29.86;100182.25;4927818;28;20090;-82
2021/08/28 08:27:55;;;;;;;1.08;1.08;;;;;;;29.54;30.12;100194.66;4907637;29;20076;-82
2021/08/28 08:30:40;;;;;;;1.08;1.08;;;;;;;29.72;29.10;100187.03;4906119;29;20416;-80
2021/08/28 08:33:12;;;;;;;1.10;1.10;;;;;;;30.55;28.38;100183.78;4910963;29;20059;-80
2021/08/28 08:35:38;;;;;;;1.00;1.00;;;;;;;30.80;28.44;100174.72;4925840;29;20039;-80
2021/08/28 08:38:04;;;;;;;1.02;1.02;;;;;;;31.63;27.20;100171.91;4927550;28;20039;-80
2021/08/28 08:40:31;;;;;;;1.00;1.00;;;;;;;31.97;27.02;100182.59;4925752;28;20545;-82
2021/08/28 08:43:03;;;;;;;1.20;1.20;;;;;;;31.63;26.88;100166.31;4916368;29;20106;-80
2021/08/28 08:45:29;;;;;;;0.70;0.70;;;;;;;30.75;28.30;100164.34;4948642;28;20050;-82
2021/08/28 08:47:56;;;;;;;1.33;1.30;;;;;;;30.88;28.71;100166.66;4923373;29;20074;-82
2021/08/28 08:50:23;;;;;;;0.57;0.57;;;;;;;30.21;29.45;100167.41;4912810;29;20046;-80
2021/08/28 08:52:55;;;;;;;1.10;1.10;;;;;;;29.64;30.02;100156.84;4920507;29;20068;-81
2021/08/28 08:55:37;;;;;;;1.30;1.30;;;;;;;29.82;30.12;100155.63;4929096;29;20039;-80
2021/08/28 08:58:03;;;;;;;1.00;1.00;;;;;;;31.28;27.48;100151.16;4927035;29;20048;-80
2021/08/28 09:00:30;;;;;;;1.00;1.00;;;;;;;31.44;27.07;100158.47;4925076;29;20044;-80
2021/08/28 09:03:21;;;;;;;1.08;1.08;;;;;;;31.14;27.49;100152.78;4938370;29;20399;-81
2021/08/28 09:05:54;;;;;;;1.00;1.00;;;;;;;30.43;28.44;100147.72;4925448;29;20039;-81
2021/08/28 09:08:21;;;;;;;1.10;1.10;;;;;;;31.49;27.51;100132.50;4936741;29;20098;-82
2021/08/28 09:10:47;;;;;;;1.00;1.00;;;;;;;32.25;26.71;100147.56;4928650;29;20035;-80
2021/08/28 09:13:18;;;;;;;1.00;1.00;;;;;;;31.81;26.14;100135.03;4928141;29;20110;-81
2021/08/28 09:16:01;;;;;;;1.00;1.00;;;;;;;31.28;27.12;100148.34;4909811;29;20039;-83
2021/08/28 09:18:29;;;;;;;1.00;1.00;;;;;;;30.82;27.82;100123.06;4922216;29;20035;-83
2021/08/28 09:20:58;;;;;;;1.00;1.00;;;;;;;31.11;27.29;100114.22;4930921;29;20078;-81
2021/08/28 09:23:24;;;;;;;1.02;1.02;;;;;;;31.73;26.88;100116.00;4933013;29;20039;-83
2021/08/28 09:25:53;;;;;;;1.00;1.00;;;;;;;32.96;25.50;100110.16;4934834;29;20588;-83
2021/08/28 09:28:32;;;;;;;1.02;1.02;;;;;;;31.78;25.79;100124.41;4895152;29;20056;-81
2021/08/28 09:31:01;;;;;;;0.90;0.90;;;;;;;30.73;27.35;100113.53;4935243;29;20111;-83
2021/08/28 09:33:34;;;;;;;0.93;0.93;;;;;;;30.41;28.63;100108.91;4928134;29;20047;-82
2021/08/28 09:36:01;;;;;;;0.90;0.90;;;;;;;30.55;27.98;100116.81;4901373;29;20048;-84
2021/08/28 09:38:41;;;;;;;1.00;1.00;;;;;;;30.63;28.43;100116.28;4893388;29;20043;-84
2021/08/28 09:41:09;;;;;;;0.90;0.90;;;;;;;31.42;27.54;100118.78;4892344;29;20142;-84
2021/08/28 09:43:35;;;;;;;0.90;0.90;;;;;;;31.55;26.78;100122.13;4879868;29;20043;-83
2021/08/28 09:46:09;;;;;;;0.90;0.90;;;;;;;31.57;26.53;100120.75;4932909;29;20154;-84
2021/08/28 09:48:36;;;;;;;1.00;1.00;;;;;;;31.89;27.03;100120.50;4902485;29;20102;-85
2021/08/28 09:51:03;;;;;;;0.88;0.88;;;;;;;31.87;26.68;100125.53;4964715;28;20133;-83
2021/08/28 09:53:34;;;;;;;0.90;0.90;;;;;;;31.61;27.38;100115.44;4922558;28;20050;-86
2021/08/28 09:56:29;;;;;;;0.80;0.80;;;;;;;31.27;27.32;100124.31;4955009;29;20058;-82
2021/08/28 09:58:59;;;;;;;0.90;0.90;;;;;;;30.94;28.63;100106.94;4961927;28;20142;-85
2021/08/28 10:01:28;;;;;;;0.90;0.90;;;;;;;31.75;27.80;100105.38;4945656;28;20059;-83
2021/08/28 10:04:03;;;;;;;0.80;0.80;;;;;;;32.29;26.25;100106.69;4938776;28;20498;-83
2021/08/28 10:06:44;;;;;;;0.80;0.80;;;;;;;31.64;26.77;100114.88;4938515;28;20055;-84
2021/08/28 10:09:10;;;;;;;0.80;0.80;;;;;;;31.43;27.29;100106.47;4941093;28;20047;-81
2021/08/28 10:11:37;;;;;;;0.80;0.80;;;;;;;31.97;26.84;100109.88;4932254;28;20050;-82
2021/08/28 10:14:03;;;;;;;0.90;0.90;;;;;;;32.60;26.48;100115.88;4950925;28;20062;-82
2021/08/28 10:16:31;;;;;;;0.80;0.80;;;;;;;32.27;25.99;100132.19;4953382;28;20037;-83
2021/08/28 10:18:57;;;;;;;0.80;0.80;;;;;;;31.69;26.75;100126.06;4965766;28;20190;-83
2021/08/28 10:21:23;;;;;;;0.70;0.70;;;;;;;30.61;28.20;100126.88;4936454;28;20043;-83
2021/08/28 10:23:53;;;;;;;0.73;0.73;;;;;;;31.00;27.38;100113.34;4951531;28;20060;-81
2021/08/28 10:26:20;;;;;;;0.80;0.80;;;;;;;31.17;27.04;100113.97;4949876;28;20100;-81
2021/08/28 10:28:46;;;;;;;0.70;0.70;;;;;;;31.93;26.31;100118.81;4965714;28;20049;-83
2021/08/28 10:31:13;;;;;;;0.77;0.77;;;;;;;31.45;26.75;100111.81;4953972;28;20043;-79
2021/08/28 10:33:39;;;;;;;0.70;0.70;;;;;;;31.60;26.77;100116.56;4968224;28;20035;-83
2021/08/28 10:36:10;;;;;;;0.80;0.80;;;;;;;31.46;27.04;100114.31;4943161;28;20039;-81
2021/08/28 10:38:41;;;;;;;0.80;0.80;;;;;;;31.58;27.12;100116.00;4938407;28;20226;-84
2021/08/28 10:41:08;;;;;;;0.80;0.80;;;;;;;31.08;28.13;100114.78;4953890;28;20155;-81
2021/08/28 10:43:34;;;;;;;0.88;0.88;;;;;;;30.96;27.86;100107.47;4928033;28;20050;-83
2021/08/28 10:46:16;;;;;;;0.70;0.70;;;;;;;30.66;27.88;100090.59;4934055;28;20074;-82
2021/08/28 10:49:04;;;;;;;0.70;0.70;;;;;;;30.76;28.29;100101.03;4930204;28;20039;-81
2021/08/28 10:51:36;;;;;;;0.70;0.70;;;;;;;30.77;28.55;100091.53;4924214;28;20035;-80
2021/08/28 10:54:06;;;;;;;0.75;0.75;;;;;;;31.03;27.75;100098.84;4971570;28;20089;-80
2021/08/28 10:56:54;;;;;;;0.70;0.70;;;;;;;30.52;28.38;100102.25;4923233;28;20082;-81
2021/08/28 10:59:23;;;;;;;0.70;0.70;;;;;;;31.38;27.35;100095.31;4950572;28;20212;-82
2021/08/28 11:01:56;;;;;;;0.60;0.60;;;;;;;30.30;28.66;100098.81;4957038;28;20039;-81
2021/08/28 11:04:40;;;;;;;0.70;0.70;;;;;;;30.12;29.65;100108.44;4938201;28;20110;-84
2021/08/28 11:07:21;;;;;;;0.80;0.80;;;;;;;29.72;29.77;100104.25;4961779;28;20118;-84
2021/08/28 11:10:10;;;;;;;0.70;0.70;;;;;;;29.78;29.79;100091.19;4939724;28;20047;-82
2021/08/28 11:12:50;;;;;;;0.60;0.60;;;;;;;30.11;29.27;100083.63;4969716;28;20050;-82
2021/08/28 11:15:28;;;;;;;0.70;0.70;;;;;;;30.57;28.99;100093.09;4964495;28;20042;-85
2021/08/28 11:18:06;;;;;;;0.60;0.60;;;;;;;30.04;29.68;100084.69;4948981;28;20134;-82
2021/08/28 11:20:40;;;;;;;0.70;0.70;;;;;;;29.54;30.11;100085.97;4943796;28;20069;-81
2021/08/28 11:23:15;;;;;;;0.70;0.70;;;;;;;29.49;30.41;100088.72;4929031;28;20075;-82
2021/08/28 11:25:51;;;;;;;0.60;0.60;;;;;;;29.41;30.33;100083.63;4951060;28;20094;-82
2021/08/28 11:28:21;;;;;;;0.60;0.60;;;;;;;29.53;30.04;100078.72;4964439;28;20042;-82
2021/08/28 11:30:48;;;;;;;0.70;0.70;;;;;;;29.84;29.59;100084.56;4970981;28;20540;-82
2021/08/28 11:33:32;;;;;;;0.73;0.70;;;;;;;29.70;29.95;100083.34;4923847;28;20075;-80
2021/08/28 11:36:07;;;;;;;1.55;1.08;;;;;;;30.44;29.65;100066.53;4945518;28;20142;-83
2021/08/28 11:38:56;;;;;;;0.77;0.77;;;;;;;30.81;28.62;100071.16;4947001;28;20051;-82
2021/08/28 11:41:36;;;;;;;0.60;0.60;;;;;;;30.80;28.10;100072.28;4926031;28;20059;-81
2021/08/28 11:44:04;;;;;;;0.60;0.60;;;;;;;30.42;29.51;100073.47;4951493;28;20095;-83
2021/08/28 11:46:32;;;;;;;0.70;0.70;;;;;;;30.11;29.27;100066.88;4921599;28;20050;-83
2021/08/28 11:48:59;;;;;;;0.50;0.50;;;;;;;30.40;29.20;100048.66;4931803;28;20189;-80